Time;durP1;ratioP1;P1;durP2;ratioP2;P2;SDS_P1;SDS_P2;PMS_P1;PMS_P2;Temp;Humidity;BMP_temperature;BMP_pressure;BME280_temperature;BME280_humidity;BME280_pressure;Samples;Min_cycle;Max_cycle;Signal;HPM_P1;HPM_P2
2023/02/15 00:00:22;;;;;;;0.90;0.22;;;;;;;;;;4147766;28;20085;-41
2023/02/15 00:02:24;;;;;;;0.50;0.28;;;;;;;;;;4147739;28;20502;-40
2023/02/15 00:04:45;;;;;;;1.70;0.40;;;;;;;;;;4147435;28;20056;-40
2023/02/15 00:06:47;;;;;;;0.68;0.38;;;;;;;;;;4147240;28;20080;-40
2023/02/15 00:08:48;;;;;;;0.80;0.38;;;;;;;;;;4130363;28;20061;-40
2023/02/15 00:10:50;;;;;;;0.40;0.30;;;;;;;;;;4147690;28;20058;-40
2023/02/15 00:12:51;;;;;;;0.20;0.20;;;;;;;;;;4147318;28;20049;-40
2023/02/15 00:14:53;;;;;;;0.52;0.40;;;;;;;;;;4147491;28;20050;-41
2023/02/15 00:16:55;;;;;;;0.30;0.20;;;;;;;;;;4147500;28;20068;-40
2023/02/15 00:18:56;;;;;;;0.35;0.20;;;;;;;;;;4147223;28;20404;-41
2023/02/15 00:20:58;;;;;;;0.95;0.40;;;;;;;;;;4147609;28;20061;-40
2023/02/15 00:22:59;;;;;;;0.22;0.22;;;;;;;;;;4147019;28;20461;-40
2023/02/15 00:25:01;;;;;;;0.88;0.20;;;;;;;;;;4130211;28;20105;-40
2023/02/15 00:27:02;;;;;;;0.65;0.40;;;;;;;;;;4147614;28;20492;-40
2023/02/15 00:29:03;;;;;;;0.35;0.20;;;;;;;;;;4147045;28;20103;-40
2023/02/15 00:31:09;;;;;;;0.40;0.28;;;;;;;;;;4147407;28;20085;-40
2023/02/15 00:33:11;;;;;;;0.40;0.40;;;;;;;;;;4147691;28;20107;-40
2023/02/15 00:35:12;;;;;;;0.52;0.38;;;;;;;;;;4147286;28;20104;-40
2023/02/15 00:37:14;;;;;;;0.32;0.20;;;;;;;;;;4112991;28;20059;-40
2023/02/15 00:39:16;;;;;;;0.70;0.28;;;;;;;;;;4129826;28;20441;-40
2023/02/15 00:41:18;;;;;;;0.35;0.30;;;;;;;;;;4129688;28;20513;-40
2023/02/15 00:43:19;;;;;;;1.35;0.25;;;;;;;;;;4147185;28;20076;-40
2023/02/15 00:45:21;;;;;;;0.32;0.22;;;;;;;;;;4146943;28;20605;-40
2023/02/15 00:47:24;;;;;;;0.43;0.32;;;;;;;;;;4129340;28;20054;-40
2023/02/15 00:49:25;;;;;;;0.80;0.50;;;;;;;;;;4147532;28;20054;-40
2023/02/15 00:51:27;;;;;;;0.50;0.22;;;;;;;;;;4146628;28;20635;-40
2023/02/15 00:53:28;;;;;;;0.65;0.25;;;;;;;;;;4129454;28;20497;-40
2023/02/15 00:55:30;;;;;;;1.40;0.30;;;;;;;;;;4147098;28;20096;-40
2023/02/15 00:57:31;;;;;;;0.35;0.32;;;;;;;;;;4147148;28;20488;-40
2023/02/15 00:59:33;;;;;;;0.77;0.50;;;;;;;;;;4147171;28;20083;-40
2023/02/15 01:01:34;;;;;;;0.38;0.20;;;;;;;;;;4129547;28;20069;-41
2023/02/15 01:03:36;;;;;;;0.93;0.35;;;;;;;;;;4147087;28;20185;-40
2023/02/15 01:05:37;;;;;;;0.30;0.30;;;;;;;;;;4147298;28;20100;-40
2023/02/15 01:07:38;;;;;;;0.77;0.40;;;;;;;;;;4138551;28;20456;-40
2023/02/15 01:09:40;;;;;;;0.63;0.20;;;;;;;;;;4146697;28;20053;-40
2023/02/15 01:11:41;;;;;;;0.43;0.30;;;;;;;;;;4147160;28;20054;-40
2023/02/15 01:13:42;;;;;;;0.15;0.15;;;;;;;;;;4146743;28;20065;-40
2023/02/15 01:15:44;;;;;;;0.30;0.28;;;;;;;;;;4146789;28;20058;-40
2023/02/15 01:17:51;;;;;;;0.40;0.28;;;;;;;;;;4113440;28;20059;-40
2023/02/15 01:19:52;;;;;;;0.38;0.30;;;;;;;;;;4134475;28;20108;-40
2023/02/15 01:21:54;;;;;;;0.20;0.20;;;;;;;;;;4146331;28;20537;-40
2023/02/15 01:23:55;;;;;;;0.20;0.20;;;;;;;;;;4147067;28;20061;-40
2023/02/15 01:26:01;;;;;;;0.52;0.30;;;;;;;;;;4146829;28;20061;-41
2023/02/15 01:28:03;;;;;;;1.25;0.43;;;;;;;;;;4133967;28;20069;-40
2023/02/15 01:30:04;;;;;;;0.50;0.30;;;;;;;;;;4147203;28;20066;-40
2023/02/15 01:32:06;;;;;;;0.82;0.30;;;;;;;;;;4146534;28;20053;-40
2023/02/15 01:34:08;;;;;;;0.38;0.30;;;;;;;;;;4146664;28;20410;-40
2023/02/15 01:36:10;;;;;;;0.28;0.20;;;;;;;;;;4145961;28;20054;-40
2023/02/15 01:38:12;;;;;;;0.30;0.20;;;;;;;;;;4129351;28;20077;-40
2023/02/15 01:40:15;;;;;;;0.40;0.30;;;;;;;;;;4146640;28;20050;-40
2023/02/15 01:42:25;;;;;;;1.42;0.30;;;;;;;;;;4129509;28;20089;-40
2023/02/15 01:44:49;;;;;;;0.63;0.30;;;;;;;;;;4129712;28;20050;-40
2023/02/15 01:46:53;;;;;;;0.60;0.20;;;;;;;;;;4129170;28;20480;-40
2023/02/15 01:48:58;;;;;;;0.55;0.20;;;;;;;;;;4129455;28;20061;-40
2023/02/15 01:51:01;;;;;;;0.38;0.22;;;;;;;;;;4116258;28;20081;-40
2023/02/15 01:53:05;;;;;;;0.43;0.30;;;;;;;;;;4146270;28;20076;-40
2023/02/15 01:55:06;;;;;;;0.35;0.32;;;;;;;;;;4146894;28;20053;-40
2023/02/15 01:57:12;;;;;;;0.50;0.30;;;;;;;;;;4146499;28;20073;-40
2023/02/15 01:59:17;;;;;;;0.43;0.30;;;;;;;;;;4131724;28;20054;-40
2023/02/15 02:01:19;;;;;;;0.38;0.35;;;;;;;;;;4132428;28;20058;-40
2023/02/15 02:03:29;;;;;;;0.85;0.40;;;;;;;;;;4132277;28;20058;-40
2023/02/15 02:05:31;;;;;;;0.75;0.30;;;;;;;;;;4115812;28;20050;-39
2023/02/15 02:07:38;;;;;;;0.77;0.30;;;;;;;;;;4119867;28;20058;-40
2023/02/15 02:09:40;;;;;;;0.30;0.30;;;;;;;;;;4132184;28;20169;-40
2023/02/15 02:11:43;;;;;;;0.63;0.40;;;;;;;;;;4149300;28;20493;-40
2023/02/15 02:13:47;;;;;;;0.20;0.20;;;;;;;;;;4131571;28;20059;-40
2023/02/15 02:16:08;;;;;;;0.52;0.40;;;;;;;;;;4139746;28;20564;-41
2023/02/15 02:18:13;;;;;;;0.93;0.30;;;;;;;;;;4137750;28;20462;-40
2023/02/15 02:20:48;;;;;;;0.20;0.20;;;;;;;;;;4149255;28;20090;-40
2023/02/15 02:23:18;;;;;;;0.65;0.40;;;;;;;;;;4131596;28;20101;-40
2023/02/15 02:25:48;;;;;;;0.50;0.30;;;;;;;;;;4131546;28;20054;-40
2023/02/15 02:27:49;;;;;;;0.45;0.20;;;;;;;;;;4139451;28;20413;-40
2023/02/15 02:29:50;;;;;;;1.23;0.30;;;;;;;;;;4149273;28;20144;-40
2023/02/15 02:32:37;;;;;;;0.70;0.32;;;;;;;;;;4133943;28;20113;-40
2023/02/15 02:34:59;;;;;;;0.43;0.30;;;;;;;;;;4148939;28;20564;-40
2023/02/15 02:37:12;;;;;;;0.38;0.30;;;;;;;;;;4145156;28;20058;-40
2023/02/15 02:39:42;;;;;;;0.60;0.30;;;;;;;;;;4115705;28;20082;-40
2023/02/15 02:41:58;;;;;;;0.10;0.10;;;;;;;;;;4134252;28;20413;-40
2023/02/15 02:44:19;;;;;;;0.40;0.28;;;;;;;;;;4131687;28;20527;-41
2023/02/15 02:46:26;;;;;;;0.30;0.30;;;;;;;;;;4136253;28;20058;-40
2023/02/15 02:48:30;;;;;;;0.30;0.30;;;;;;;;;;4099591;29;20581;-40
2023/02/15 02:50:31;;;;;;;0.20;0.20;;;;;;;;;;4129596;28;20065;-40
2023/02/15 02:52:47;;;;;;;0.45;0.30;;;;;;;;;;4148468;28;20408;-41
2023/02/15 02:54:48;;;;;;;1.15;0.50;;;;;;;;;;4133915;28;20055;-41
2023/02/15 02:56:50;;;;;;;0.52;0.30;;;;;;;;;;4115285;28;20062;-40
2023/02/15 02:58:58;;;;;;;1.73;0.40;;;;;;;;;;4099514;28;20481;-44
2023/02/15 03:01:10;;;;;;;0.32;0.30;;;;;;;;;;4139348;28;20494;-40
2023/02/15 03:03:38;;;;;;;0.47;0.28;;;;;;;;;;4117776;28;20062;-40
2023/02/15 03:05:41;;;;;;;0.65;0.40;;;;;;;;;;4130446;28;20051;-40
2023/02/15 03:07:48;;;;;;;0.20;0.20;;;;;;;;;;4118178;28;20062;-40
2023/02/15 03:09:51;;;;;;;0.60;0.57;;;;;;;;;;4118399;28;20418;-40
2023/02/15 03:11:53;;;;;;;0.30;0.30;;;;;;;;;;4138774;28;20111;-42
2023/02/15 03:13:57;;;;;;;0.60;0.30;;;;;;;;;;4099492;28;20099;-41
2023/02/15 03:18:22;;;;;;;0.22;0.22;;;;;;;;;;4091139;28;20059;-40
2023/02/15 03:20:33;;;;;;;0.28;0.20;;;;;;;;;;4121090;28;20055;-40
2023/02/15 03:22:40;;;;;;;0.63;0.22;;;;;;;;;;4111941;28;20058;-40
2023/02/15 03:25:21;;;;;;;0.85;0.20;;;;;;;;;;4115870;28;20059;-40
2023/02/15 03:27:26;;;;;;;0.40;0.20;;;;;;;;;;4110324;28;20054;-40
2023/02/15 03:29:29;;;;;;;0.20;0.20;;;;;;;;;;4130920;28;20062;-40
2023/02/15 03:31:32;;;;;;;0.60;0.38;;;;;;;;;;4125074;28;20443;-40
2023/02/15 03:33:36;;;;;;;0.32;0.32;;;;;;;;;;4124068;28;20527;-40
2023/02/15 03:35:44;;;;;;;0.20;0.20;;;;;;;;;;4118341;28;20158;-40
2023/02/15 03:37:49;;;;;;;0.38;0.30;;;;;;;;;;4117510;28;20061;-40
2023/02/15 03:42:25;;;;;;;0.30;0.30;;;;;;;;;;4134250;28;20105;-40
2023/02/15 03:44:29;;;;;;;0.20;0.20;;;;;;;;;;4130979;28;20062;-40
2023/02/15 03:46:46;;;;;;;0.52;0.30;;;;;;;;;;4130563;28;20454;-40
2023/02/15 03:48:53;;;;;;;0.50;0.30;;;;;;;;;;4117853;28;20134;-40
2023/02/15 03:53:20;;;;;;;0.40;0.40;;;;;;;;;;4133350;28;20054;-40
2023/02/15 03:55:22;;;;;;;0.38;0.38;;;;;;;;;;4147811;28;20053;-40
2023/02/15 04:02:21;;;;;;;0.50;0.30;;;;;;;;;;4146229;28;20062;-41
2023/02/15 04:04:28;;;;;;;0.30;0.30;;;;;;;;;;4098580;28;20082;-40
2023/02/15 04:06:29;;;;;;;0.38;0.22;;;;;;;;;;4129900;28;20062;-40
2023/02/15 04:10:55;;;;;;;0.77;0.43;;;;;;;;;;4136048;28;20050;-40
2023/02/15 04:12:57;;;;;;;0.43;0.25;;;;;;;;;;4113994;28;20101;-40
2023/02/15 04:17:18;;;;;;;0.20;0.20;;;;;;;;;;4135406;28;20065;-40
2023/02/15 04:26:20;;;;;;;0.25;0.22;;;;;;;;;;4147611;28;20054;-40
2023/02/15 04:28:21;;;;;;;0.28;0.20;;;;;;;;;;4146475;28;20053;-40
2023/02/15 04:30:25;;;;;;;0.95;0.30;;;;;;;;;;4114049;28;20105;-40
2023/02/15 04:32:27;;;;;;;0.38;0.28;;;;;;;;;;4138305;28;20057;-40
2023/02/15 04:34:28;;;;;;;0.38;0.25;;;;;;;;;;4147521;28;20050;-40
2023/02/15 04:36:29;;;;;;;0.57;0.30;;;;;;;;;;4115770;28;20510;-40
2023/02/15 04:38:30;;;;;;;0.60;0.30;;;;;;;;;;4126845;28;20428;-40
2023/02/15 04:40:32;;;;;;;0.20;0.20;;;;;;;;;;4137255;28;20056;-40
2023/02/15 04:42:33;;;;;;;0.20;0.20;;;;;;;;;;4137912;28;20489;-40
2023/02/15 04:44:34;;;;;;;0.17;0.13;;;;;;;;;;4126409;28;20108;-40
2023/02/15 04:46:36;;;;;;;0.57;0.30;;;;;;;;;;4144748;28;20057;-40
2023/02/15 04:48:39;;;;;;;0.55;0.30;;;;;;;;;;4136452;28;20049;-40
2023/02/15 04:50:41;;;;;;;0.70;0.30;;;;;;;;;;4147156;28;20054;-40
2023/02/15 04:52:42;;;;;;;0.40;0.30;;;;;;;;;;4134908;28;20125;-40
2023/02/15 04:54:44;;;;;;;0.70;0.50;;;;;;;;;;4144172;28;20093;-40
2023/02/15 04:56:45;;;;;;;0.40;0.40;;;;;;;;;;4130779;28;20461;-40
2023/02/15 04:58:46;;;;;;;0.45;0.40;;;;;;;;;;4138376;28;20516;-40
2023/02/15 05:00:47;;;;;;;0.32;0.30;;;;;;;;;;4147360;28;20064;-40
2023/02/15 05:02:49;;;;;;;0.32;0.30;;;;;;;;;;4146187;28;20060;-40
2023/02/15 05:04:50;;;;;;;0.95;0.68;;;;;;;;;;4130736;28;20054;-40
2023/02/15 05:06:52;;;;;;;0.57;0.38;;;;;;;;;;4136823;28;20057;-40
2023/02/15 05:08:53;;;;;;;0.20;0.20;;;;;;;;;;4137227;28;20414;-41
2023/02/15 05:10:55;;;;;;;0.65;0.20;;;;;;;;;;4113653;28;20109;-41
2023/02/15 05:12:56;;;;;;;0.28;0.28;;;;;;;;;;4146040;28;20163;-40
2023/02/15 05:14:57;;;;;;;0.47;0.30;;;;;;;;;;4146818;28;20062;-40
2023/02/15 05:17:01;;;;;;;0.60;0.50;;;;;;;;;;4142972;28;20058;-40
2023/02/15 05:19:02;;;;;;;1.27;0.40;;;;;;;;;;4146555;28;20077;-40
2023/02/15 05:21:03;;;;;;;0.30;0.30;;;;;;;;;;4144648;28;20057;-40
2023/02/15 05:23:05;;;;;;;0.45;0.38;;;;;;;;;;4135641;28;20053;-40
2023/02/15 05:29:48;;;;;;;;;;;;;;;;;;4141192;28;20561;-40
2023/02/15 05:31:49;;;;;;;0.30;0.30;;;;;;;;;;4139732;28;19966;-40
2023/02/15 05:33:51;;;;;;;0.22;0.22;;;;;;;;;;4148851;28;20161;-40
2023/02/15 05:35:52;;;;;;;0.20;0.20;;;;;;;;;;4147559;28;20053;-40
2023/02/15 05:37:54;;;;;;;0.50;0.32;;;;;;;;;;4133312;28;20096;-41
2023/02/15 05:39:55;;;;;;;0.22;0.22;;;;;;;;;;4142325;28;20100;-40
2023/02/15 05:41:59;;;;;;;0.10;0.10;;;;;;;;;;4149945;28;20081;-40
2023/02/15 05:44:00;;;;;;;0.40;0.40;;;;;;;;;;4149595;28;20453;-40
2023/02/15 05:46:03;;;;;;;0.90;0.60;;;;;;;;;;4145089;28;20058;-41
2023/02/15 05:48:04;;;;;;;1.20;0.65;;;;;;;;;;4133671;28;20058;-40
2023/02/15 05:50:06;;;;;;;0.57;0.57;;;;;;;;;;4144583;28;20069;-40
2023/02/15 05:52:08;;;;;;;1.20;0.68;;;;;;;;;;4135685;28;20434;-40
2023/02/15 05:54:09;;;;;;;0.80;0.73;;;;;;;;;;4145875;28;20085;-40
2023/02/15 05:56:10;;;;;;;1.63;0.88;;;;;;;;;;4133174;28;20058;-40
2023/02/15 05:58:12;;;;;;;1.70;1.00;;;;;;;;;;4143928;28;20575;-40
2023/02/15 06:00:14;;;;;;;3.28;1.10;;;;;;;;;;4134383;28;20058;-40
2023/02/15 06:02:15;;;;;;;1.50;0.90;;;;;;;;;;4114398;28;20081;-40
2023/02/15 06:04:17;;;;;;;1.98;1.27;;;;;;;;;;4138210;28;20057;-40
2023/02/15 06:06:18;;;;;;;1.58;1.08;;;;;;;;;;4147065;28;20501;-40
2023/02/15 06:08:20;;;;;;;3.60;1.23;;;;;;;;;;4147538;28;20521;-40
2023/02/15 06:10:21;;;;;;;2.28;0.93;;;;;;;;;;4130988;28;20111;-40
2023/02/15 06:12:23;;;;;;;2.88;1.30;;;;;;;;;;4136468;28;20058;-40
2023/02/15 06:14:24;;;;;;;3.50;1.00;;;;;;;;;;4121001;28;20529;-40
2023/02/15 06:16:26;;;;;;;3.97;1.35;;;;;;;;;;4113588;28;20107;-40
2023/02/15 06:18:27;;;;;;;3.08;1.25;;;;;;;;;;4131229;28;20065;-40
2023/02/15 06:20:28;;;;;;;4.57;1.10;;;;;;;;;;4146582;28;20054;-40
2023/02/15 06:22:29;;;;;;;3.95;1.65;;;;;;;;;;4147093;28;20062;-40
2023/02/15 06:24:30;;;;;;;7.45;2.17;;;;;;;;;;4147146;28;20046;-40
2023/02/15 06:26:32;;;;;;;3.95;1.50;;;;;;;;;;4146870;28;20069;-40
2023/02/15 06:28:34;;;;;;;3.03;1.60;;;;;;;;;;4147244;28;20543;-40
2023/02/15 06:30:35;;;;;;;6.45;1.63;;;;;;;;;;4147209;28;20520;-40
2023/02/15 06:32:36;;;;;;;7.88;1.33;;;;;;;;;;4137134;28;20069;-40
2023/02/15 06:34:37;;;;;;;4.78;1.73;;;;;;;;;;4130829;28;20061;-40
2023/02/15 06:36:39;;;;;;;4.57;1.60;;;;;;;;;;4131441;28;20425;-40
2023/02/15 06:38:40;;;;;;;5.18;1.38;;;;;;;;;;4137251;28;21494;-40
2023/02/15 06:40:41;;;;;;;3.65;1.55;;;;;;;;;;4125318;28;20102;-40
2023/02/15 06:42:43;;;;;;;5.45;1.33;;;;;;;;;;4125639;28;20384;-41
2023/02/15 06:44:44;;;;;;;5.65;1.75;;;;;;;;;;4106469;28;20128;-41
2023/02/15 06:46:46;;;;;;;4.38;1.60;;;;;;;;;;4124613;28;20063;-41
2023/02/15 06:48:47;;;;;;;3.72;1.77;;;;;;;;;;4109768;28;20577;-41
2023/02/15 06:50:49;;;;;;;3.05;1.60;;;;;;;;;;4129164;28;20054;-40
2023/02/15 06:52:56;;;;;;;7.25;1.63;;;;;;;;;;4128888;28;20058;-40
2023/02/15 06:54:57;;;;;;;5.25;2.20;;;;;;;;;;4127796;28;20046;-40
2023/02/15 06:56:58;;;;;;;6.28;1.80;;;;;;;;;;4121704;28;20144;-41
2023/02/15 06:58:59;;;;;;;6.07;2.10;;;;;;;;;;4120202;28;20054;-41
2023/02/15 07:01:01;;;;;;;8.80;2.20;;;;;;;;;;4110395;28;20469;-40
2023/02/15 07:03:02;;;;;;;2.47;1.27;;;;;;;;;;4113142;28;20129;-41
2023/02/15 07:05:04;;;;;;;3.35;1.25;;;;;;;;;;4106243;28;20100;-41
2023/02/15 07:07:10;;;;;;;5.07;1.88;;;;;;;;;;4075373;28;20121;-42
2023/02/15 07:09:12;;;;;;;7.72;1.77;;;;;;;;;;4110146;28;20097;-41
2023/02/15 07:13:33;;;;;;;3.55;1.42;;;;;;;;;;4113296;28;20639;-41
2023/02/15 07:15:34;;;;;;;3.05;1.52;;;;;;;;;;4108184;28;20485;-42
2023/02/15 07:17:36;;;;;;;3.97;1.58;;;;;;;;;;4129465;28;20456;-44
2023/02/15 07:19:38;;;;;;;2.75;1.45;;;;;;;;;;4128127;28;20050;-45
2023/02/15 07:21:39;;;;;;;7.30;1.73;;;;;;;;;;4126210;28;20128;-45
2023/02/15 07:23:41;;;;;;;3.80;1.52;;;;;;;;;;4124958;28;20269;-43
2023/02/15 07:25:42;;;;;;;5.38;1.23;;;;;;;;;;4124952;28;20572;-43
2023/02/15 07:27:44;;;;;;;4.00;1.35;;;;;;;;;;4113511;28;20062;-45
2023/02/15 07:29:45;;;;;;;6.30;1.58;;;;;;;;;;4120529;28;20080;-45
2023/02/15 07:31:47;;;;;;;10.05;1.92;;;;;;;;;;4108399;28;20786;-43
2023/02/15 07:33:48;;;;;;;8.90;1.42;;;;;;;;;;4127484;28;20056;-43
2023/02/15 07:35:52;;;;;;;7.10;1.77;;;;;;;;;;4131339;28;20046;-44
2023/02/15 07:37:54;;;;;;;10.07;1.88;;;;;;;;;;4130778;28;20062;-43
2023/02/15 07:39:55;;;;;;;7.53;1.80;;;;;;;;;;4119578;28;20057;-43
2023/02/15 07:41:56;;;;;;;5.45;1.50;;;;;;;;;;4112996;28;20114;-42
2023/02/15 07:44:00;;;;;;;7.75;1.52;;;;;;;;;;4101165;28;20148;-41
2023/02/15 07:46:04;;;;;;;6.75;1.85;;;;;;;;;;4128122;28;20537;-43
2023/02/15 07:48:05;;;;;;;9.00;1.80;;;;;;;;;;4125571;28;20065;-42
2023/02/15 07:50:07;;;;;;;8.05;1.55;;;;;;;;;;4131990;28;20426;-45
2023/02/15 07:52:08;;;;;;;7.13;1.58;;;;;;;;;;4125924;28;20136;-43
2023/02/15 07:54:10;;;;;;;5.43;1.48;;;;;;;;;;4123627;28;20061;-42
2023/02/15 07:56:12;;;;;;;10.32;1.88;;;;;;;;;;4127405;28;20069;-46
2023/02/15 07:58:14;;;;;;;8.50;1.98;;;;;;;;;;4120673;28;20455;-44
2023/02/15 08:00:19;;;;;;;11.60;1.85;;;;;;;;;;4103120;28;20140;-40
2023/02/15 08:02:21;;;;;;;7.05;1.75;;;;;;;;;;4055787;28;20100;-39
2023/02/15 08:04:23;;;;;;;6.63;1.88;;;;;;;;;;4092847;28;20899;-39
2023/02/15 08:06:28;;;;;;;6.97;1.70;;;;;;;;;;4102571;28;20679;-40
2023/02/15 08:08:29;;;;;;;4.65;1.75;;;;;;;;;;4120787;28;20058;-41
2023/02/15 08:12:51;;;;;;;6.97;1.73;;;;;;;;;;4098392;28;20069;-39
2023/02/15 08:14:53;;;;;;;9.13;2.15;;;;;;;;;;4107037;28;20714;-38
2023/02/15 08:16:55;;;;;;;9.48;2.03;;;;;;;;;;4117135;28;20778;-38
2023/02/15 08:18:58;;;;;;;8.15;2.35;;;;;;;;;;4115815;28;20115;-38
2023/02/15 08:20:59;;;;;;;7.90;2.08;;;;;;;;;;4118874;28;20527;-38
2023/02/15 08:23:01;;;;;;;18.40;3.25;;;;;;;;;;4114039;28;20570;-39
2023/02/15 08:25:03;;;;;;;10.75;2.40;;;;;;;;;;4106561;28;20050;-38
2023/02/15 08:27:06;;;;;;;5.72;2.08;;;;;;;;;;4119355;28;20060;-39
2023/02/15 08:29:08;;;;;;;4.55;2.15;;;;;;;;;;4107764;28;22272;-39
2023/02/15 08:31:11;;;;;;;9.25;2.60;;;;;;;;;;4089005;28;20116;-40
2023/02/15 08:33:12;;;;;;;6.00;2.35;;;;;;;;;;4103795;28;20088;-40
2023/02/15 08:35:13;;;;;;;8.30;2.50;;;;;;;;;;4099926;28;20571;-38
2023/02/15 08:37:15;;;;;;;12.30;2.40;;;;;;;;;;4117758;28;20081;-39
2023/02/15 08:39:16;;;;;;;9.85;2.97;;;;;;;;;;4106260;28;20058;-39
2023/02/15 08:41:18;;;;;;;8.13;2.55;;;;;;;;;;4119964;28;20112;-38
2023/02/15 08:43:20;;;;;;;9.77;3.35;;;;;;;;;;4110779;28;20061;-39
2023/02/15 08:45:21;;;;;;;12.13;3.05;;;;;;;;;;4113514;28;20583;-37
2023/02/15 08:47:22;;;;;;;8.20;3.13;;;;;;;;;;4120329;28;20277;-39
2023/02/15 08:49:23;;;;;;;8.60;2.70;;;;;;;;;;4119986;28;20064;-38
2023/02/15 08:51:31;;;;;;;7.38;2.65;;;;;;;;;;4105877;28;20454;-38
2023/02/15 08:53:32;;;;;;;10.40;3.40;;;;;;;;;;4120354;28;20556;-40
2023/02/15 08:55:33;;;;;;;10.38;3.05;;;;;;;;;;4118245;28;20123;-39
2023/02/15 08:57:35;;;;;;;13.60;3.17;;;;;;;;;;4121026;28;20072;-42
2023/02/15 08:59:36;;;;;;;8.30;3.35;;;;;;;;;;4116780;28;20576;-39
2023/02/15 09:01:37;;;;;;;11.13;3.90;;;;;;;;;;4096639;28;20270;-40
2023/02/15 09:03:39;;;;;;;8.95;3.47;;;;;;;;;;4098892;28;20104;-38
2023/02/15 09:05:41;;;;;;;12.13;3.65;;;;;;;;;;4112015;28;20050;-39
2023/02/15 09:07:42;;;;;;;8.23;3.38;;;;;;;;;;4097350;28;20577;-40
2023/02/15 09:09:45;;;;;;;14.93;3.38;;;;;;;;;;4110574;28;20347;-39
2023/02/15 09:11:48;;;;;;;12.10;4.18;;;;;;;;;;4091960;28;20062;-41
2023/02/15 09:13:54;;;;;;;13.15;3.17;;;;;;;;;;4097496;28;20050;-39
2023/02/15 09:16:00;;;;;;;15.93;4.20;;;;;;;;;;4113279;28;20108;-39
2023/02/15 09:18:05;;;;;;;7.38;3.15;;;;;;;;;;4106821;28;20166;-41
2023/02/15 09:20:07;;;;;;;12.98;3.50;;;;;;;;;;4113763;28;20476;-40
2023/02/15 09:22:08;;;;;;;14.43;3.80;;;;;;;;;;4106258;28;20152;-40
2023/02/15 09:24:12;;;;;;;11.25;4.10;;;;;;;;;;4097288;28;20576;-39
2023/02/15 09:26:19;;;;;;;13.00;4.13;;;;;;;;;;4114671;28;20457;-38
2023/02/15 09:28:20;;;;;;;10.35;3.55;;;;;;;;;;4099935;28;20466;-39
2023/02/15 09:30:22;;;;;;;9.07;3.25;;;;;;;;;;4090206;28;20077;-39
2023/02/15 09:32:23;;;;;;;6.53;2.75;;;;;;;;;;4107623;28;20057;-39
2023/02/15 09:34:25;;;;;;;12.35;3.10;;;;;;;;;;4096893;28;20054;-40
2023/02/15 09:36:32;;;;;;;13.32;3.20;;;;;;;;;;4113091;28;20531;-40
2023/02/15 09:38:33;;;;;;;7.65;2.63;;;;;;;;;;4110242;28;20084;-40
2023/02/15 09:40:40;;;;;;;13.48;3.92;;;;;;;;;;4101914;28;20085;-40
2023/02/15 09:42:54;;;;;;;12.05;3.33;;;;;;;;;;4096791;28;20364;-40
2023/02/15 09:45:26;;;;;;;9.65;3.72;;;;;;;;;;4099151;28;20364;-41
2023/02/15 09:47:49;;;;;;;8.15;2.92;;;;;;;;;;4102346;28;20069;-44
2023/02/15 09:50:28;;;;;;;8.68;2.42;;;;;;;;;;4112879;28;20115;-42
2023/02/15 09:52:42;;;;;;;8.60;2.73;;;;;;;;;;4114286;28;20673;-43
2023/02/15 09:54:47;;;;;;;9.43;3.30;;;;;;;;;;4108194;28;20113;-41
2023/02/15 09:56:59;;;;;;;10.05;3.08;;;;;;;;;;4106567;28;20477;-41
2023/02/15 09:59:21;;;;;;;9.07;2.78;;;;;;;;;;4108893;28;20050;-40
2023/02/15 10:01:24;;;;;;;9.48;2.45;;;;;;;;;;4110569;28;20195;-43
2023/02/15 10:04:07;;;;;;;7.57;3.05;;;;;;;;;;4101480;28;20117;-40
2023/02/15 10:06:47;;;;;;;10.82;2.30;;;;;;;;;;4095877;28;20148;-40
2023/02/15 10:09:01;;;;;;;14.40;2.88;;;;;;;;;;4099967;28;20050;-41
2023/02/15 10:13:48;;;;;;;7.60;2.45;;;;;;;;;;4107112;28;20124;-43
2023/02/15 10:15:57;;;;;;;9.02;2.13;;;;;;;;;;4090942;28;20510;-41
2023/02/15 10:18:37;;;;;;;12.52;2.38;;;;;;;;;;4084385;28;20054;-41
2023/02/15 10:20:52;;;;;;;12.65;2.80;;;;;;;;;;4120412;28;20053;-42
2023/02/15 10:23:16;;;;;;;8.82;2.17;;;;;;;;;;4122429;28;20104;-42
2023/02/15 10:25:56;;;;;;;10.05;2.92;;;;;;;;;;4120720;28;20061;-42
2023/02/15 10:28:04;;;;;;;14.27;2.95;;;;;;;;;;4093008;28;20136;-43
2023/02/15 10:30:05;;;;;;;6.72;2.35;;;;;;;;;;4118482;28;21345;-43
2023/02/15 10:32:23;;;;;;;8.07;2.38;;;;;;;;;;4103624;28;20546;-42
2023/02/15 10:34:30;;;;;;;10.65;2.17;;;;;;;;;;4102085;28;20069;-39
2023/02/15 10:36:43;;;;;;;3.78;1.85;;;;;;;;;;4125667;28;20049;-42
2023/02/15 10:39:08;;;;;;;5.43;2.00;;;;;;;;;;4117308;28;20107;-40
2023/02/15 10:41:23;;;;;;;3.90;1.70;;;;;;;;;;4111417;28;20463;-39
2023/02/15 10:43:46;;;;;;;4.55;2.17;;;;;;;;;;4125866;28;20058;-39
2023/02/15 10:46:10;;;;;;;3.78;1.90;;;;;;;;;;4122786;28;20064;-39
2023/02/15 10:48:40;;;;;;;6.38;2.10;;;;;;;;;;4103198;28;20161;-40
2023/02/15 10:51:11;;;;;;;7.28;2.63;;;;;;;;;;4108258;28;20064;-40
2023/02/15 10:53:40;;;;;;;8.13;2.75;;;;;;;;;;4072591;28;20143;-39
2023/02/15 10:55:42;;;;;;;;;;;;;;;;;;4113916;28;20567;-40
2023/02/15 10:57:58;;;;;;;5.00;2.17;;;;;;;;;;4125525;28;19925;-42
2023/02/15 11:00:05;;;;;;;7.47;2.10;;;;;;;;;;4102553;28;20057;-39
2023/02/15 11:02:45;;;;;;;5.95;2.17;;;;;;;;;;4101032;28;20054;-39
2023/02/15 11:05:28;;;;;;;10.93;2.08;;;;;;;;;;4118117;28;20068;-40
2023/02/15 11:07:37;;;;;;;8.05;1.83;;;;;;;;;;4070104;28;20063;-40
2023/02/15 11:09:42;;;;;;;5.88;1.90;;;;;;;;;;4074313;28;20098;-39
2023/02/15 11:11:49;;;;;;;6.40;2.10;;;;;;;;;;4061890;28;20088;-41
2023/02/15 11:13:54;;;;;;;7.40;1.88;;;;;;;;;;4123682;28;20066;-40
2023/02/15 11:16:00;;;;;;;6.45;2.10;;;;;;;;;;4105296;28;20046;-40
2023/02/15 11:18:06;;;;;;;7.32;2.15;;;;;;;;;;4108358;28;20058;-40
2023/02/15 11:20:27;;;;;;;3.85;1.88;;;;;;;;;;4126539;28;20168;-39
2023/02/15 11:22:30;;;;;;;8.20;2.25;;;;;;;;;;4131102;28;20145;-41
2023/02/15 11:24:40;;;;;;;3.97;2.30;;;;;;;;;;4112641;28;20063;-41
2023/02/15 11:27:02;;;;;;;4.32;2.08;;;;;;;;;;4112084;28;20525;-41
2023/02/15 11:29:22;;;;;;;7.07;2.20;;;;;;;;;;4111128;28;20050;-40
2023/02/15 11:31:26;;;;;;;5.25;2.20;;;;;;;;;;4117937;28;20062;-40
2023/02/15 11:33:30;;;;;;;8.27;2.30;;;;;;;;;;4104495;28;20093;-40
2023/02/15 11:35:59;;;;;;;11.02;2.17;;;;;;;;;;4107818;28;20050;-43
2023/02/15 11:38:07;;;;;;;7.25;1.75;;;;;;;;;;4104889;28;20061;-42
2023/02/15 11:40:26;;;;;;;3.80;1.48;;;;;;;;;;4125043;28;20421;-43
2023/02/15 11:42:30;;;;;;;7.50;2.20;;;;;;;;;;4103667;28;20703;-42
2023/02/15 11:44:44;;;;;;;4.35;1.90;;;;;;;;;;4126767;28;20197;-43
2023/02/15 11:46:46;;;;;;;3.22;1.42;;;;;;;;;;4124507;28;20054;-42
2023/02/15 11:48:47;;;;;;;5.18;1.70;;;;;;;;;;4108317;28;20101;-43
2023/02/15 11:50:49;;;;;;;7.32;2.05;;;;;;;;;;4097902;28;20058;-42
2023/02/15 11:52:52;;;;;;;4.20;2.25;;;;;;;;;;4111361;28;20568;-41
2023/02/15 11:54:54;;;;;;;6.60;1.50;;;;;;;;;;4106470;28;20042;-41
2023/02/15 11:57:00;;;;;;;4.28;1.52;;;;;;;;;;4122718;28;20061;-41
2023/02/15 11:59:29;;;;;;;10.65;1.92;;;;;;;;;;4095246;28;20455;-40
2023/02/15 12:01:33;;;;;;;9.15;1.67;;;;;;;;;;4086344;28;20109;-43
2023/02/15 12:03:59;;;;;;;3.63;1.30;;;;;;;;;;4122249;28;20056;-40
2023/02/15 12:06:03;;;;;;;4.57;1.23;;;;;;;;;;4098830;28;20752;-41
2023/02/15 12:08:14;;;;;;;4.00;1.50;;;;;;;;;;4099080;28;20276;-43
2023/02/15 12:10:31;;;;;;;6.43;1.60;;;;;;;;;;4097368;28;20619;-42
2023/02/15 12:12:34;;;;;;;9.68;1.50;;;;;;;;;;4116304;28;20057;-41
2023/02/15 12:14:56;;;;;;;2.70;1.05;;;;;;;;;;4108459;28;20597;-43
2023/02/15 12:16:58;;;;;;;5.55;1.67;;;;;;;;;;4121205;28;20112;-42
2023/02/15 12:19:00;;;;;;;3.97;1.20;;;;;;;;;;4127277;28;20061;-44
2023/02/15 12:21:09;;;;;;;3.80;1.67;;;;;;;;;;4124327;28;20121;-44
2023/02/15 12:23:15;;;;;;;2.95;1.73;;;;;;;;;;4124578;28;20049;-45
2023/02/15 12:25:34;;;;;;;3.45;1.40;;;;;;;;;;4123921;28;20054;-46
2023/02/15 12:27:36;;;;;;;2.17;0.93;;;;;;;;;;4116232;28;20053;-43
2023/02/15 12:30:05;;;;;;;4.18;1.40;;;;;;;;;;4107667;28;20058;-45
2023/02/15 12:32:11;;;;;;;3.58;1.38;;;;;;;;;;4116287;28;20559;-44
2023/02/15 12:34:21;;;;;;;1.08;0.80;;;;;;;;;;4102769;28;20108;-43
2023/02/15 12:36:30;;;;;;;3.17;1.45;;;;;;;;;;4109214;28;20635;-43
2023/02/15 12:38:31;;;;;;;3.47;1.20;;;;;;;;;;4105485;28;20058;-42
2023/02/15 12:40:58;;;;;;;2.45;1.23;;;;;;;;;;4118089;28;20115;-41
2023/02/15 12:43:00;;;;;;;2.47;1.20;;;;;;;;;;4118493;28;20072;-43
2023/02/15 12:45:04;;;;;;;3.17;1.40;;;;;;;;;;4114012;28;20549;-43
2023/02/15 12:47:18;;;;;;;1.80;1.30;;;;;;;;;;4119049;28;20923;-42
2023/02/15 12:49:20;;;;;;;3.30;1.25;;;;;;;;;;4115256;28;20112;-43
2023/02/15 12:51:21;;;;;;;2.05;1.10;;;;;;;;;;4120560;28;20123;-41
2023/02/15 12:53:31;;;;;;;1.50;1.23;;;;;;;;;;4091974;28;20919;-43
2023/02/15 12:55:32;;;;;;;4.57;1.20;;;;;;;;;;4115124;28;20112;-42
2023/02/15 12:57:33;;;;;;;1.92;1.35;;;;;;;;;;4122621;28;20248;-42
2023/02/15 12:59:37;;;;;;;2.63;1.30;;;;;;;;;;4112946;28;20653;-42
2023/02/15 13:01:38;;;;;;;3.50;1.75;;;;;;;;;;4112711;28;20135;-42
2023/02/15 13:03:59;;;;;;;4.95;1.40;;;;;;;;;;4096350;28;20114;-43
2023/02/15 13:06:01;;;;;;;2.60;1.25;;;;;;;;;;4119528;28;21825;-41
2023/02/15 13:08:14;;;;;;;1.80;1.10;;;;;;;;;;4121340;28;20057;-41
2023/02/15 13:10:24;;;;;;;2.65;1.20;;;;;;;;;;4123896;28;20068;-41
2023/02/15 13:12:27;;;;;;;1.85;1.27;;;;;;;;;;4122492;28;20131;-40